Time;durP1;ratioP1;P1;durP2;ratioP2;P2;SDS_P1;SDS_P2;PMS_P1;PMS_P2;Temp;Humidity;BMP_temperature;BMP_pressure;BME280_temperature;BME280_humidity;BME280_pressure;Samples;Min_cycle;Max_cycle;Signal;HPM_P1;HPM_P2
2022/08/07 00:02:11;;;;;;;3.55;2.20;;;;;;;17.83;47.77;102595.34;5011225;28;114054;-73
2022/08/07 00:04:59;;;;;;;3.45;2.08;;;;;;;17.80;47.88;102597.31;5004347;28;114865;-73
2022/08/07 00:07:26;;;;;;;3.17;2.03;;;;;;;17.76;47.88;102593.03;5018417;28;124489;-73
2022/08/07 00:10:07;;;;;;;3.08;2.15;;;;;;;17.73;47.86;102587.84;5006779;28;123724;-73
2022/08/07 00:12:54;;;;;;;2.38;2.17;;;;;;;17.70;48.09;102589.69;4995163;28;114843;-73
2022/08/07 00:15:31;;;;;;;3.30;1.80;;;;;;;17.67;48.26;102581.81;4993120;28;113124;-73
2022/08/07 00:18:17;;;;;;;;;;;;;;;17.62;47.39;102586.53;4996724;28;124255;-73
2022/08/07 00:20:48;;;;;;;2.95;2.10;;;;;;;17.60;47.72;102583.06;5021853;28;123900;-73
2022/08/07 00:23:16;;;;;;;2.28;1.80;;;;;;;17.57;48.10;102583.19;5015950;28;115131;-73
2022/08/07 00:25:43;;;;;;;2.75;2.10;;;;;;;17.55;48.21;102585.06;4984128;28;113955;-73
2022/08/07 00:28:25;;;;;;;3.50;2.15;;;;;;;17.51;48.12;102578.13;4995865;28;123914;-73
2022/08/07 00:31:02;;;;;;;3.45;2.08;;;;;;;17.47;48.35;102572.03;4987577;28;123867;-73
2022/08/07 00:33:33;;;;;;;2.85;2.00;;;;;;;17.44;48.44;102571.31;4998439;28;114664;-73
2022/08/07 00:36:02;;;;;;;2.40;1.95;;;;;;;17.40;48.54;102572.38;5008947;28;113947;-73
2022/08/07 00:38:29;;;;;;;4.88;2.00;;;;;;;17.38;48.74;102566.25;4990749;28;125008;-73
2022/08/07 00:40:58;;;;;;;2.28;1.80;;;;;;;17.37;48.74;102569.88;5002115;28;124128;-73
2022/08/07 00:43:25;;;;;;;2.33;1.90;;;;;;;17.33;48.82;102563.78;5005743;28;114320;-73
2022/08/07 00:46:13;;;;;;;3.95;2.28;;;;;;;17.30;48.71;102559.41;5003626;28;113983;-73
2022/08/07 00:48:40;;;;;;;3.60;2.13;;;;;;;17.30;48.80;102558.56;5006282;28;124966;-73
2022/08/07 00:51:08;;;;;;;2.45;1.75;;;;;;;17.27;48.93;102558.69;5010769;28;123955;-74
2022/08/07 00:53:36;;;;;;;3.03;1.90;;;;;;;17.25;48.92;102566.81;5010261;28;115216;-73
2022/08/07 00:56:05;;;;;;;3.38;1.95;;;;;;;17.22;48.96;102564.28;5009411;28;114916;-73
2022/08/07 00:58:42;;;;;;;6.13;2.40;;;;;;;17.21;48.87;102553.63;5009746;28;123982;-74
2022/08/07 01:01:14;;;;;;;2.80;2.35;;;;;;;17.19;49.14;102555.50;5006702;28;124118;-73
2022/08/07 01:03:41;;;;;;;2.85;2.30;;;;;;;17.16;49.17;102551.16;5010901;28;114230;-73
2022/08/07 01:06:25;;;;;;;2.63;1.90;;;;;;;17.12;49.19;102554.91;5021520;28;113105;-73
2022/08/07 01:08:52;;;;;;;2.97;2.25;;;;;;;17.08;49.33;102561.34;4993782;28;123254;-73
2022/08/07 01:11:25;;;;;;;3.08;1.88;;;;;;;17.04;49.25;102551.72;5020794;28;124210;-73
2022/08/07 01:14:12;;;;;;;4.55;2.53;;;;;;;16.98;49.41;102552.00;4995937;27;114633;-73
2022/08/07 01:16:43;;;;;;;5.45;2.50;;;;;;;16.95;49.43;102544.09;5009377;28;113315;-74
2022/08/07 01:19:15;;;;;;;4.03;2.83;;;;;;;16.90;49.67;102549.66;4978108;28;123684;-73
2022/08/07 01:21:49;;;;;;;2.88;2.13;;;;;;;16.88;49.62;102547.03;4997046;28;123940;-73
2022/08/07 01:24:26;;;;;;;3.67;2.40;;;;;;;16.84;49.72;102550.81;4993278;28;113593;-73
2022/08/07 01:26:58;;;;;;;2.88;2.28;;;;;;;16.82;49.67;102541.97;5008108;28;114090;-73
2022/08/07 01:29:27;;;;;;;2.53;2.03;;;;;;;16.82;49.83;102541.97;4991634;28;124286;-73
2022/08/07 01:32:02;;;;;;;2.50;2.13;;;;;;;16.81;49.64;102539.31;5009025;28;123843;-73
2022/08/07 01:34:32;;;;;;;3.20;2.40;;;;;;;16.77;49.87;102538.59;4988777;28;113690;-73
2022/08/07 01:37:06;;;;;;;3.90;2.25;;;;;;;16.76;49.83;102536.84;5019022;27;113130;-73
2022/08/07 01:39:38;;;;;;;2.63;1.90;;;;;;;16.73;49.93;102531.63;5017247;28;123529;-73
2022/08/07 01:42:30;;;;;;;3.05;2.10;;;;;;;16.69;50.26;102532.72;5012441;28;123343;-73
2022/08/07 01:45:20;;;;;;;5.22;2.38;;;;;;;16.67;49.96;102527.44;5015229;28;115320;-73
2022/08/07 01:47:54;;;;;;;3.20;2.20;;;;;;;16.65;49.87;102528.41;5024917;28;114521;-73
2022/08/07 01:50:45;;;;;;;3.78;2.53;;;;;;;16.61;50.19;102526.81;5009769;28;122370;-73
2022/08/07 01:53:20;;;;;;;2.67;1.77;;;;;;;16.61;50.14;102526.81;5010092;28;123882;-73
2022/08/07 01:56:21;;;;;;;3.05;2.15;;;;;;;16.56;50.10;102524.34;4994489;28;114190;-73
2022/08/07 01:59:04;;;;;;;3.17;2.17;;;;;;;16.54;50.14;102521.72;4993483;28;113661;-73
2022/08/07 02:01:36;;;;;;;4.35;2.20;;;;;;;16.54;50.25;102526.22;5005496;28;124226;-73
2022/08/07 02:04:34;;;;;;;3.45;2.05;;;;;;;16.50;50.19;102520.13;5001115;28;122860;-73
2022/08/07 02:07:05;;;;;;;2.72;2.08;;;;;;;16.47;50.21;102514.03;4991881;28;114023;-73
2022/08/07 02:09:32;;;;;;;5.53;2.95;;;;;;;16.46;50.41;102513.19;5007931;28;113209;-73
2022/08/07 02:12:23;;;;;;;3.45;2.13;;;;;;;16.43;50.23;102518.66;5020066;28;123214;-73
2022/08/07 02:14:59;;;;;;;3.85;2.22;;;;;;;16.40;50.41;102518.78;4992693;28;123621;-74
2022/08/07 02:17:47;;;;;;;3.00;2.40;;;;;;;16.38;50.61;102520.66;5008893;28;114732;-73
2022/08/07 02:20:17;;;;;;;2.80;2.17;;;;;;;16.36;50.52;102522.53;5008745;28;113679;-73
2022/08/07 02:22:56;;;;;;;3.60;2.30;;;;;;;16.30;50.77;102517.44;5007907;28;123710;-73
2022/08/07 02:25:29;;;;;;;3.97;2.35;;;;;;;16.27;50.95;102517.56;4988772;28;123545;-73
2022/08/07 02:28:18;;;;;;;3.15;2.30;;;;;;;16.23;50.90;102518.63;4993787;28;113429;-73
2022/08/07 02:31:00;;;;;;;2.97;2.40;;;;;;;16.20;51.08;102516.06;5008883;28;113516;-73
2022/08/07 02:33:49;;;;;;;3.08;2.25;;;;;;;16.18;50.90;102512.59;4997029;28;123990;-73
2022/08/07 02:36:32;;;;;;;2.72;2.30;;;;;;;16.17;51.05;102521.56;5005752;28;123520;-73
2022/08/07 02:39:09;;;;;;;3.45;2.47;;;;;;;16.15;50.91;102519.81;5007413;28;114921;-73
2022/08/07 02:41:47;;;;;;;2.80;2.20;;;;;;;16.14;51.08;102523.44;5007203;28;114656;-73
2022/08/07 02:44:23;;;;;;;4.07;2.60;;;;;;;16.11;50.93;102512.88;4989492;28;123909;-73
2022/08/07 02:47:04;;;;;;;5.15;2.70;;;;;;;16.11;51.06;102512.88;5006559;28;124080;-73
2022/08/07 02:49:33;;;;;;;2.72;2.30;;;;;;;16.09;51.04;102517.41;5007756;28;113344;-73
2022/08/07 02:52:25;;;;;;;3.60;2.00;;;;;;;16.06;51.04;102509.50;4994941;28;113586;-73
2022/08/07 02:55:12;;;;;;;3.17;2.58;;;;;;;16.04;51.08;102506.03;5006631;28;124365;-73
2022/08/07 02:58:03;;;;;;;4.82;2.55;;;;;;;16.03;51.00;102500.72;5017308;28;123864;-73
2022/08/07 03:00:33;;;;;;;3.67;2.28;;;;;;;16.03;51.40;102498.97;4992719;28;113467;-73
2022/08/07 03:03:05;;;;;;;3.13;2.40;;;;;;;16.02;51.29;102501.69;4991998;28;113074;-74
2022/08/07 03:05:36;;;;;;;5.22;2.67;;;;;;;15.99;51.29;102497.31;5005989;28;123206;-73
2022/08/07 03:08:08;;;;;;;3.95;2.63;;;;;;;15.95;51.37;102501.06;5008978;28;124062;-73
2022/08/07 03:10:41;;;;;;;4.22;2.90;;;;;;;15.93;51.42;102498.44;4979494;28;113528;-73
2022/08/07 03:13:17;;;;;;;4.03;2.90;;;;;;;15.91;51.84;102499.44;5007866;28;113644;-73
2022/08/07 03:15:47;;;;;;;3.45;2.25;;;;;;;15.89;51.51;102495.97;5006902;28;123223;-73
2022/08/07 03:18:26;;;;;;;3.55;2.75;;;;;;;15.86;51.62;102496.09;4995771;28;123198;-75
2022/08/07 03:21:05;;;;;;;4.25;2.90;;;;;;;15.83;51.54;102501.56;5006354;28;113729;-73
2022/08/07 03:23:40;;;;;;;4.32;2.90;;;;;;;15.80;51.71;102517.72;5008182;28;113662;-73
2022/08/07 03:26:30;;;;;;;4.18;2.60;;;;;;;15.76;51.59;102512.53;4994608;28;124228;-73
2022/08/07 03:29:01;;;;;;;4.43;2.95;;;;;;;15.73;51.62;102507.28;5004517;28;123085;-73
2022/08/07 03:31:31;;;;;;;3.95;2.95;;;;;;;15.71;51.78;102509.13;5008714;28;115232;-73
2022/08/07 03:34:12;;;;;;;3.60;2.65;;;;;;;15.71;51.99;102510.94;5006771;28;114528;-73
2022/08/07 03:36:51;;;;;;;3.17;2.60;;;;;;;15.70;51.76;102511.84;5016712;28;124537;-73
2022/08/07 03:39:22;;;;;;;5.80;2.80;;;;;;;15.69;51.85;102513.66;5010506;28;123074;-73
2022/08/07 03:42:10;;;;;;;4.55;2.83;;;;;;;15.67;51.71;102504.84;5000669;28;113664;-74
2022/08/07 03:44:39;;;;;;;6.03;3.03;;;;;;;15.63;51.89;102495.19;5006774;28;113220;-73
2022/08/07 03:47:08;;;;;;;5.93;3.17;;;;;;;15.59;51.91;102504.25;4990233;28;124061;-73
2022/08/07 03:49:42;;;;;;;3.75;2.58;;;;;;;15.56;52.28;102505.25;4978105;28;123831;-73
2022/08/07 03:52:25;;;;;;;3.92;2.80;;;;;;;15.52;52.32;102506.31;5007323;28;113445;-73
2022/08/07 03:54:57;;;;;;;5.25;3.00;;;;;;;15.50;52.29;102501.94;5006508;28;113245;-73
2022/08/07 03:57:35;;;;;;;5.50;2.90;;;;;;;15.47;52.21;102504.75;4990077;28;123966;-73
2022/08/07 04:00:25;;;;;;;6.78;3.13;;;;;;;15.44;52.25;102510.19;5005557;28;124571;-75
2022/08/07 04:03:00;;;;;;;4.32;3.08;;;;;;;15.41;52.33;102512.97;5006174;28;113563;-74
2022/08/07 04:05:35;;;;;;;5.63;2.97;;;;;;;15.40;52.34;102508.59;4994791;28;113254;-74
2022/08/07 04:08:13;;;;;;;5.22;3.20;;;;;;;15.38;52.42;102517.50;5005994;28;123854;-73
2022/08/07 04:10:47;;;;;;;6.03;3.28;;;;;;;15.36;52.50;102513.16;5015941;28;123435;-73
2022/08/07 04:13:35;;;;;;;4.38;2.80;;;;;;;15.33;52.40;102507.94;5001767;28;113962;-73
2022/08/07 04:16:22;;;;;;;4.35;2.85;;;;;;;15.29;52.38;102512.50;4999628;28;114713;-73
2022/08/07 04:19:00;;;;;;;3.80;2.97;;;;;;;15.28;52.82;102509.94;5009092;28;123330;-73
2022/08/07 04:21:40;;;;;;;4.43;3.40;;;;;;;15.28;52.69;102513.47;4989759;28;123842;-73
2022/08/07 04:24:32;;;;;;;4.35;2.80;;;;;;;15.28;52.63;102516.13;5025305;27;113945;-73
2022/08/07 04:27:09;;;;;;;4.22;2.92;;;;;;;15.29;52.69;102517.84;5010047;28;114626;-73
2022/08/07 04:29:58;;;;;;;5.47;3.45;;;;;;;15.28;52.63;102521.47;4993358;28;123289;-73
2022/08/07 04:32:53;;;;;;;5.22;3.30;;;;;;;15.26;52.69;102523.31;5007440;28;123852;-73
2022/08/07 04:35:27;;;;;;;4.50;3.15;;;;;;;15.24;53.00;102525.19;4994262;28;113906;-73
2022/08/07 04:38:07;;;;;;;6.13;3.78;;;;;;;15.24;53.14;102525.19;5009567;28;114051;-73
2022/08/07 04:40:41;;;;;;;5.38;3.50;;;;;;;15.24;53.21;102527.84;5006201;28;123938;-73
2022/08/07 04:43:34;;;;;;;5.90;3.60;;;;;;;15.24;53.02;102527.84;5013196;28;124303;-73
2022/08/07 04:46:41;;;;;;;5.72;3.55;;;;;;;15.24;53.27;102524.28;4996236;28;113799;-73
2022/08/07 04:49:56;;;;;;;4.47;3.60;;;;;;;15.25;53.38;102526.91;4997140;28;113419;-73
2022/08/07 04:52:43;;;;;;;8.13;4.15;;;;;;;15.27;53.35;102535.72;5009748;28;123542;-73
2022/08/07 04:55:49;;;;;;;9.80;4.97;;;;;;;15.28;53.31;102532.16;5009770;28;123175;-73
2022/08/07 04:58:48;;;;;;;7.13;4.50;;;;;;;15.31;53.49;102537.38;5008148;28;112671;-73
2022/08/07 05:02:09;;;;;;;10.05;4.95;;;;;;;15.35;53.46;102539.00;5006379;28;113569;-73
2022/08/07 05:04:49;;;;;;;7.13;4.82;;;;;;;15.38;53.72;102544.19;5008031;28;124426;-73
2022/08/07 05:07:26;;;;;;;8.88;5.20;;;;;;;15.42;53.90;102536.09;5001406;28;123521;-73
2022/08/07 05:10:09;;;;;;;7.78;5.18;;;;;;;15.46;53.92;102535.03;5005819;28;113769;-74
2022/08/07 05:12:51;;;;;;;8.80;5.00;;;;;;;15.50;54.08;102533.97;5016413;27;113492;-74
2022/08/07 05:15:30;;;;;;;7.00;4.95;;;;;;;15.54;54.25;102532.97;5012052;28;123776;-73
2022/08/07 05:18:04;;;;;;;7.45;5.15;;;;;;;15.59;54.23;102525.63;5008732;28;123747;-73
2022/08/07 05:20:42;;;;;;;7.82;5.82;;;;;;;15.65;54.37;102530.75;5005083;28;115282;-73
2022/08/07 05:23:22;;;;;;;9.17;5.87;;;;;;;15.69;54.40;102540.38;5019726;27;114631;-73
2022/08/07 05:26:01;;;;;;;9.20;6.60;;;;;;;15.76;54.45;102544.56;5011652;28;123567;-73
2022/08/07 05:28:48;;;;;;;10.07;6.72;;;;;;;15.81;54.60;102546.19;5017274;28;124118;-73
2022/08/07 05:31:21;;;;;;;;;;;;;;;15.85;53.87;102547.81;5031604;28;112668;-73
2022/08/07 05:33:52;;;;;;;9.65;6.57;;;;;;;15.91;54.38;102548.41;5029566;28;113494;-72
2022/08/07 05:36:36;;;;;;;11.80;6.97;;;;;;;15.99;54.56;102550.78;5010165;28;123265;-73
2022/08/07 05:39:11;;;;;;;10.68;7.43;;;;;;;16.06;54.70;102552.25;4992401;28;123925;-73
2022/08/07 05:42:02;;;;;;;12.00;7.88;;;;;;;16.14;54.98;102554.63;5015969;27;113458;-73
2022/08/07 05:44:39;;;;;;;10.60;7.18;;;;;;;16.22;55.16;102556.97;5015576;28;113079;-73
2022/08/07 05:47:18;;;;;;;11.82;7.47;;;;;;;16.28;55.45;102551.41;4994863;28;124197;-73
2022/08/07 05:49:50;;;;;;;11.15;7.38;;;;;;;16.35;55.27;102558.22;5012347;28;123023;-73
2022/08/07 05:52:20;;;;;;;11.35;7.13;;;;;;;16.42;55.14;102562.38;5010857;28;114643;-73
2022/08/07 05:55:01;;;;;;;10.68;7.05;;;;;;;16.51;55.27;102559.31;5009463;28;113249;-74
2022/08/07 05:57:39;;;;;;;11.88;6.97;;;;;;;16.59;55.29;102555.44;5008176;28;123682;-74
2022/08/07 06:00:09;;;;;;;12.63;7.43;;;;;;;16.65;55.42;102552.50;5009018;28;123315;-73
2022/08/07 06:02:52;;;;;;;13.23;7.13;;;;;;;16.73;55.34;102547.69;5008683;28;113718;-74
2022/08/07 06:05:25;;;;;;;11.57;6.57;;;;;;;16.80;55.36;102549.16;5006430;28;113249;-73
2022/08/07 06:07:59;;;;;;;10.98;6.95;;;;;;;16.86;55.42;102548.91;5008105;28;123423;-73
2022/08/07 06:10:47;;;;;;;10.38;7.13;;;;;;;16.96;55.43;102567.25;4994217;28;123616;-74
2022/08/07 06:13:21;;;;;;;10.88;6.95;;;;;;;17.03;55.58;102566.06;4984970;28;114709;-73
2022/08/07 06:16:08;;;;;;;10.98;6.95;;;;;;;17.12;55.39;102565.59;4994947;28;114461;-73
2022/08/07 06:18:41;;;;;;;10.77;6.43;;;;;;;17.20;55.52;102557.25;5008314;28;125467;-73
2022/08/07 06:21:18;;;;;;;10.75;6.53;;;;;;;17.29;55.23;102563.06;4993485;28;123214;-74
2022/08/07 06:24:06;;;;;;;11.50;7.10;;;;;;;17.37;55.45;102561.84;5004827;28;113628;-73
2022/08/07 06:26:53;;;;;;;12.20;7.32;;;;;;;17.48;55.38;102567.56;5007138;28;113010;-74
2022/08/07 06:29:26;;;;;;;10.88;6.93;;;;;;;17.56;55.61;102568.06;5006448;28;122126;-73
2022/08/07 06:31:54;;;;;;;11.82;7.05;;;;;;;17.66;55.52;102572.03;4982217;28;123157;-74
2022/08/07 06:34:26;;;;;;;11.35;7.45;;;;;;;17.77;55.39;102568.00;4993207;28;113314;-73
2022/08/07 06:36:57;;;;;;;11.38;7.07;;;;;;;17.88;55.39;102571.06;5008419;28;113387;-74
2022/08/07 06:39:32;;;;;;;10.97;6.77;;;;;;;18.01;55.44;102569.53;4991869;28;124087;-74
2022/08/07 06:42:38;;;;;;;12.02;6.82;;;;;;;18.16;55.33;102561.63;4994545;28;123665;-74
2022/08/07 06:45:14;;;;;;;11.90;6.90;;;;;;;18.32;55.48;102564.44;5007068;28;115120;-74
2022/08/07 06:47:51;;;;;;;10.98;7.28;;;;;;;18.44;55.21;102559.34;5009231;28;113772;-74
2022/08/07 06:50:38;;;;;;;11.63;7.00;;;;;;;18.64;55.30;102554.75;4996576;28;124703;-74
2022/08/07 06:53:13;;;;;;;12.47;7.03;;;;;;;18.81;55.10;102546.72;4993727;28;123800;-74
2022/08/07 06:56:02;;;;;;;12.98;7.35;;;;;;;19.03;54.94;102553.63;4991586;28;113937;-74
2022/08/07 06:58:35;;;;;;;;;;;;;;;19.17;54.53;102547.50;5009407;28;113560;-74
2022/08/07 07:01:10;;;;;;;12.20;6.80;;;;;;;19.39;54.36;102547.22;4988089;28;124294;-74
2022/08/07 07:03:41;;;;;;;13.43;7.22;;;;;;;19.56;53.95;102533.69;4988629;28;122319;-74
2022/08/07 07:06:21;;;;;;;11.63;7.13;;;;;;;19.76;53.84;102534.41;5033365;28;114149;-74
2022/08/07 07:08:53;;;;;;;11.50;6.90;;;;;;;19.94;53.57;102538.75;5032564;28;115487;-74
2022/08/07 07:11:23;;;;;;;11.48;6.82;;;;;;;20.12;53.62;102531.44;5043681;27;123433;-74
2022/08/07 07:14:11;;;;;;;12.55;7.97;;;;;;;20.34;53.34;102536.44;5031633;28;125699;-74
2022/08/07 07:16:42;;;;;;;10.13;7.00;;;;;;;20.53;53.45;102524.53;5019742;28;115138;-74
2022/08/07 07:19:27;;;;;;;13.05;7.10;;;;;;;20.75;53.02;102535.78;5016048;28;113736;-74
2022/08/07 07:22:16;;;;;;;9.43;7.07;;;;;;;20.97;52.57;102537.16;5012766;28;124064;-74
2022/08/07 07:25:06;;;;;;;10.23;7.22;;;;;;;21.18;52.28;102543.88;4985014;28;124531;-74
2022/08/07 07:27:59;;;;;;;14.52;7.82;;;;;;;21.42;52.04;102545.09;5021452;28;113997;-74
2022/08/07 07:30:36;;;;;;;10.65;6.90;;;;;;;21.65;51.98;102540.97;4991925;28;113396;-74
2022/08/07 07:33:09;;;;;;;9.00;6.20;;;;;;;21.84;51.39;102541.50;5007366;28;123727;-74
2022/08/07 07:35:41;;;;;;;9.73;6.38;;;;;;;22.02;51.01;102543.94;5007260;28;122792;-74
2022/08/07 07:38:29;;;;;;;9.85;6.30;;;;;;;22.22;50.98;102538.06;4997766;28;115017;-74
2022/08/07 07:41:02;;;;;;;10.50;6.45;;;;;;;22.39;50.30;102533.41;5009939;28;113139;-74
2022/08/07 07:43:31;;;;;;;8.32;6.05;;;;;;;22.52;49.69;102527.03;5028527;27;123285;-74
2022/08/07 07:46:21;;;;;;;9.50;6.15;;;;;;;22.67;49.42;102525.13;5044076;28;124342;-74
2022/08/07 07:49:10;;;;;;;10.23;6.50;;;;;;;22.81;48.82;102525.97;5019524;28;113821;-73
2022/08/07 07:51:59;;;;;;;7.75;5.75;;;;;;;22.95;48.83;102528.59;5033666;28;113552;-74
2022/08/07 07:54:30;;;;;;;8.48;6.10;;;;;;;23.11;48.42;102512.16;5009163;28;123144;-74
2022/08/07 07:57:00;;;;;;;9.27;6.20;;;;;;;23.24;48.04;102512.16;5012126;28;124433;-74
2022/08/07 07:59:29;;;;;;;7.97;5.95;;;;;;;23.34;47.87;102513.22;5019546;28;115517;-74
2022/08/07 08:02:19;;;;;;;8.57;6.38;;;;;;;23.46;47.34;102515.00;4985236;28;115274;-74
2022/08/07 08:05:02;;;;;;;9.38;5.50;;;;;;;23.58;46.80;102515.09;5002370;28;123463;-74
2022/08/07 08:07:31;;;;;;;10.20;5.97;;;;;;;23.66;46.92;102518.09;5006971;28;124195;-74
2022/08/07 08:10:09;;;;;;;10.50;5.70;;;;;;;23.78;47.18;102511.75;5007192;28;114240;-74
2022/08/07 08:12:58;;;;;;;7.43;4.57;;;;;;;23.95;46.40;102513.25;4994333;28;114363;-74
2022/08/07 08:15:34;;;;;;;7.10;4.00;;;;;;;24.11;45.77;102518.38;4989281;28;123075;-74
2022/08/07 08:18:23;;;;;;;6.35;4.80;;;;;;;24.26;46.24;102517.19;5008076;28;124503;-75
2022/08/07 08:20:51;;;;;;;6.63;4.63;;;;;;;24.39;46.24;102510.81;5006336;28;114812;-75
2022/08/07 08:28:58;;;;;;;6.10;4.07;;;;;;;24.76;44.63;102524.22;5005962;28;123001;-75
2022/08/07 08:31:28;;;;;;;6.82;3.60;;;;;;;24.82;44.14;102518.31;4994153;28;114184;-75
2022/08/07 08:34:18;;;;;;;6.30;3.67;;;;;;;24.94;44.13;102525.50;5006834;28;113854;-75
2022/08/07 08:36:56;;;;;;;5.18;3.70;;;;;;;25.06;43.05;102516.34;5026158;28;123928;-75
2022/08/07 08:39:27;;;;;;;5.30;3.60;;;;;;;25.10;42.49;102516.13;5010970;28;123723;-74
2022/08/07 08:42:35;;;;;;;4.65;3.72;;;;;;;25.10;42.42;102521.53;5001930;28;114195;-74
2022/08/07 08:45:17;;;;;;;6.05;3.20;;;;;;;25.10;41.82;102522.41;4993604;28;113413;-75
2022/08/07 08:48:20;;;;;;;5.07;2.90;;;;;;;25.13;41.56;102515.84;5003292;28;124391;-75
2022/08/07 08:51:00;;;;;;;4.53;2.90;;;;;;;25.21;41.71;102518.81;4990681;28;123446;-75
2022/08/07 08:53:56;;;;;;;6.53;2.90;;;;;;;25.32;41.60;102521.56;4993597;28;115202;-75
2022/08/07 08:56:34;;;;;;;3.70;2.88;;;;;;;25.44;41.17;102514.25;4990841;28;114124;-75
2022/08/07 08:59:14;;;;;;;3.95;2.45;;;;;;;25.54;40.88;102519.78;4995644;28;123322;-75
2022/08/07 09:01:59;;;;;;;3.83;2.90;;;;;;;25.63;40.47;102513.59;5025138;28;124012;-75
2022/08/07 09:04:53;;;;;;;4.93;2.67;;;;;;;25.70;40.41;102514.81;5016671;28;113979;-75
2022/08/07 09:07:35;;;;;;;4.47;2.70;;;;;;;25.79;40.46;102514.06;4980556;28;112693;-75
2022/08/07 09:10:32;;;;;;;4.18;2.60;;;;;;;25.92;40.61;102507.63;5012008;28;124194;-75
2022/08/07 09:13:12;;;;;;;5.72;2.80;;;;;;;26.06;40.29;102510.03;5020029;28;122719;-75
2022/08/07 09:15:49;;;;;;;3.78;2.70;;;;;;;26.15;39.81;102503.84;4993102;28;112358;-75
2022/08/07 09:19:05;;;;;;;5.10;2.70;;;;;;;26.19;39.79;102505.28;5016634;28;114735;-74
2022/08/07 09:22:09;;;;;;;3.55;1.85;;;;;;;26.25;39.38;102500.31;5013962;28;123088;-75
2022/08/07 09:25:20;;;;;;;4.32;2.15;;;;;;;26.33;39.29;102501.38;5013252;28;123066;-74
2022/08/07 09:27:59;;;;;;;4.60;2.42;;;;;;;26.40;38.89;102488.13;5009386;28;114499;-74
2022/08/07 09:30:49;;;;;;;5.88;2.40;;;;;;;26.46;38.81;102487.59;5010990;28;112997;-75
2022/08/07 09:33:38;;;;;;;3.05;1.90;;;;;;;26.54;38.95;102486.91;4995819;28;124614;-74
2022/08/07 09:36:31;;;;;;;3.30;1.88;;;;;;;26.59;38.08;102491.00;5008174;28;121428;-76
2022/08/07 09:39:25;;;;;;;6.18;2.63;;;;;;;26.63;37.74;102490.75;4995054;28;113807;-75
2022/08/07 09:42:40;;;;;;;2.97;2.13;;;;;;;26.66;37.81;102495.91;5002586;28;113068;-74
2022/08/07 09:45:17;;;;;;;1.97;1.43;;;;;;;26.68;37.11;102485.75;4994921;28;123380;-74
2022/08/07 09:48:26;;;;;;;3.75;1.38;;;;;;;26.73;37.00;102491.63;5009352;28;123858;-74
2022/08/07 09:51:30;;;;;;;3.85;1.80;;;;;;;26.77;37.07;102482.25;5020729;28;115466;-73
2022/08/07 09:54:28;;;;;;;1.83;1.17;;;;;;;26.82;36.42;102485.38;5006580;28;115169;-75
2022/08/07 09:57:10;;;;;;;3.50;1.60;;;;;;;26.86;36.14;102481.44;5008272;28;123940;-73
2022/08/07 10:00:02;;;;;;;4.17;2.13;;;;;;;26.93;36.31;102470.84;5008431;28;123698;-74
2022/08/07 10:03:15;;;;;;;2.85;2.03;;;;;;;26.98;36.44;102468.59;4995831;28;113634;-74
2022/08/07 10:06:24;;;;;;;5.63;2.08;;;;;;;27.10;36.42;102466.63;5000080;28;113663;-74
2022/08/07 10:09:07;;;;;;;4.32;2.17;;;;;;;27.17;35.77;102463.19;5010805;27;123548;-74
2022/08/07 10:12:03;;;;;;;5.07;2.35;;;;;;;27.22;36.05;102465.53;5004203;28;123046;-74
2022/08/07 10:15:09;;;;;;;2.22;1.67;;;;;;;27.32;36.89;102455.53;4999636;28;114019;-74
2022/08/07 10:18:27;;;;;;;3.30;2.10;;;;;;;27.50;36.80;102446.69;5001335;28;113292;-74
2022/08/07 10:21:07;;;;;;;5.25;2.30;;;;;;;27.61;35.91;102442.97;4998297;28;124053;-75
2022/08/07 10:24:12;;;;;;;3.25;2.03;;;;;;;27.63;35.45;102446.41;5008996;28;123897;-75
2022/08/07 10:27:09;;;;;;;4.05;2.10;;;;;;;27.65;35.47;102445.28;5008664;28;113669;-75
2022/08/07 10:29:59;;;;;;;2.80;1.75;;;;;;;27.67;35.38;102447.84;5009213;28;114254;-73
2022/08/07 10:32:58;;;;;;;3.28;2.17;;;;;;;27.69;35.80;102446.72;4990844;28;123308;-75
2022/08/07 10:35:41;;;;;;;3.97;2.25;;;;;;;27.75;35.62;102440.69;4990777;28;122777;-75
2022/08/07 10:38:38;;;;;;;3.53;2.15;;;;;;;27.80;34.65;102442.13;5006448;28;114593;-74
2022/08/07 10:41:39;;;;;;;2.88;2.25;;;;;;;27.76;34.55;102436.97;5009200;28;113709;-74
2022/08/07 10:44:42;;;;;;;3.75;2.15;;;;;;;27.72;35.03;102438.25;5008806;28;124102;-74
2022/08/07 10:47:23;;;;;;;3.15;1.83;;;;;;;27.80;34.20;102431.22;4995830;28;124360;-74
2022/08/07 10:50:08;;;;;;;2.90;1.95;;;;;;;27.87;34.06;102426.94;5007771;28;115008;-74
2022/08/07 10:52:45;;;;;;;2.50;1.70;;;;;;;27.92;33.87;102432.84;5009497;28;115167;-75
2022/08/07 10:55:23;;;;;;;2.58;2.05;;;;;;;27.96;33.46;102420.66;5001621;28;123972;-75
2022/08/07 10:58:31;;;;;;;2.22;1.80;;;;;;;27.96;33.06;102415.19;5001759;28;123413;-75
2022/08/07 11:01:24;;;;;;;2.70;1.70;;;;;;;28.00;33.61;102419.34;5008553;28;114336;-75
2022/08/07 11:04:16;;;;;;;3.50;2.10;;;;;;;28.07;33.35;102411.47;5009132;28;114042;-75
2022/08/07 11:07:16;;;;;;;2.80;2.13;;;;;;;28.09;33.67;102402.13;5007614;28;124185;-75
2022/08/07 11:10:12;;;;;;;4.22;2.40;;;;;;;28.14;33.55;102413.44;4994821;28;123140;-74
2022/08/07 11:13:02;;;;;;;4.38;2.55;;;;;;;28.17;33.18;102411.44;5001450;28;114331;-75
2022/08/07 11:15:34;;;;;;;4.32;2.30;;;;;;;28.14;33.22;102401.66;5012477;28;113741;-74
2022/08/07 11:18:28;;;;;;;4.05;2.20;;;;;;;28.14;33.14;102401.66;5006880;28;123618;-74
2022/08/07 11:21:03;;;;;;;2.88;2.20;;;;;;;28.18;33.25;102402.25;5008671;28;124013;-74
2022/08/07 11:24:15;;;;;;;4.40;2.10;;;;;;;28.18;32.96;102402.25;5008744;28;114298;-74
2022/08/07 11:27:08;;;;;;;4.40;2.20;;;;;;;28.17;32.61;102401.38;4997177;28;114293;-73
2022/08/07 11:29:54;;;;;;;6.13;2.20;;;;;;;28.09;31.92;102396.69;5009471;28;124042;-74
2022/08/07 11:32:57;;;;;;;5.57;1.98;;;;;;;28.09;32.80;102388.50;5006778;28;124290;-75
2022/08/07 11:35:29;;;;;;;3.30;2.00;;;;;;;28.19;32.68;102393.06;5006261;28;114000;-75
2022/08/07 11:38:07;;;;;;;3.35;2.10;;;;;;;28.31;32.08;102380.97;5006463;28;113490;-75
2022/08/07 11:41:00;;;;;;;2.67;1.90;;;;;;;28.42;32.51;102378.06;4988601;28;123644;-74
2022/08/07 11:43:41;;;;;;;4.13;1.90;;;;;;;28.54;32.27;102371.47;5006551;28;124186;-74
2022/08/07 11:46:47;;;;;;;2.78;2.00;;;;;;;28.64;32.26;102370.56;4992548;28;114719;-74
2022/08/07 11:49:38;;;;;;;2.30;1.90;;;;;;;28.66;31.79;102369.41;5006578;28;115858;-74
2022/08/07 11:52:26;;;;;;;2.47;1.83;;;;;;;28.67;31.59;102375.69;5012351;28;123909;-74
2022/08/07 11:55:36;;;;;;;2.85;1.95;;;;;;;28.70;31.49;102375.41;5008063;28;123963;-74
2022/08/07 11:58:48;;;;;;;2.92;1.85;;;;;;;28.72;31.26;102368.78;4994299;28;114234;-74
2022/08/07 12:01:43;;;;;;;3.78;1.90;;;;;;;28.72;30.53;102365.19;5002201;28;113916;-73
2022/08/07 12:04:41;;;;;;;2.88;1.63;;;;;;;28.72;31.29;102362.47;5012734;28;122613;-74
2022/08/07 12:07:18;;;;;;;3.70;1.90;;;;;;;28.76;30.91;102358.44;5006048;28;124223;-74
2022/08/07 12:10:12;;;;;;;2.20;1.63;;;;;;;28.82;31.51;102363.28;5004563;28;114234;-74
2022/08/07 12:12:46;;;;;;;2.38;1.80;;;;;;;28.86;31.08;102363.84;5020279;28;113452;-74
2022/08/07 12:15:19;;;;;;;2.67;1.63;;;;;;;28.90;31.18;102365.25;5004804;28;123435;-74
2022/08/07 12:18:14;;;;;;;3.08;1.60;;;;;;;28.92;30.97;102363.22;4995086;28;124194;-74
2022/08/07 12:21:00;;;;;;;2.70;1.90;;;;;;;28.96;30.57;102358.34;5006106;28;114623;-74
2022/08/07 12:23:31;;;;;;;2.70;1.52;;;;;;;28.98;30.62;102364.50;5007515;28;114265;-74
2022/08/07 12:26:27;;;;;;;2.47;1.85;;;;;;;29.00;30.54;102351.56;4992084;28;122727;-74
2022/08/07 12:29:19;;;;;;;4.40;2.00;;;;;;;29.05;30.69;102360.13;5004568;28;124169;-74
2022/08/07 12:32:42;;;;;;;3.72;1.75;;;;;;;29.14;30.69;102345.59;5022545;28;113570;-75
2022/08/07 12:35:12;;;;;;;2.97;1.70;;;;;;;29.21;30.30;102346.69;5015628;28;114500;-74